This is the latest recevied weather packets stored in our database for station/object W4DEX-2. If no packets are shown the sender has not sent any weather packets the latest 10 day(s).
| Time | Temp. | Humidity | Pressure | Rain* | Wind** | Luminosity | Snow |
|---|---|---|---|---|---|---|---|
| 1777484702 | 23.33° C | 65% | 1010.6 hPa | 0 mm | 4.92 m/s, 170° | - | - |
| 1777484402 | 22.78° C | 64% | 1010.6 hPa | 0 mm | 4.47 m/s, 187° | - | - |
| 1777484103 | 23.33° C | 64% | 1010.8 hPa | 0 mm | 4.02 m/s, 190° | - | - |
| 1777483803 | 22.78° C | 66% | 1010.7 hPa | 0 mm | 4.02 m/s, 173° | - | - |
| 1777483202 | 22.22° C | 68% | 1011.1 hPa | 0 mm | 4.92 m/s, 186° | - | - |
| 1777482902 | 21.67° C | 70% | 1011.1 hPa | 0 mm | 4.47 m/s, 177° | - | - |
| 1777482302 | 20.56° C | 72% | 1011.4 hPa | 0 mm | 5.81 m/s, 170° | - | - |
| 1777482002 | 20° C | 75% | 1011.4 hPa | 0 mm | 4.92 m/s, 176° | - | - |
| 1777481702 | 20° C | 74% | 1011.6 hPa | 0 mm | 5.36 m/s, 173° | - | - |
| 1777480202 | 18.89° C | 79% | 1011.8 hPa | 0 mm | 4.47 m/s, 180° | - | - |
| 1777479902 | 18.89° C | 79% | 1012 hPa | 0 mm | 4.47 m/s, 178° | - | - |
| 1777479303 | 18.89° C | 78% | 1012 hPa | 0 mm | 4.47 m/s, 179° | - | - |
| 1777478702 | 18.33° C | 79% | 1012.1 hPa | 0 mm | 5.36 m/s, 184° | - | - |
| 1777478402 | 18.33° C | 79% | 1012.1 hPa | 0 mm | 4.92 m/s, 177° | - | - |
| 1777477803 | 18.89° C | 79% | 1012.3 hPa | 0 mm | 5.36 m/s, 178° | - | - |
| 1777477502 | 18.33° C | 80% | 1012.2 hPa | 0 mm | 4.47 m/s, 179° | - | - |
| 1777477203 | 18.33° C | 80% | 1012.4 hPa | 0 mm | 3.58 m/s, 180° | - | - |
| 1777476602 | 18.33° C | 80% | 1012.4 hPa | 0 mm | 4.92 m/s, 175° | - | - |
| 1777476302 | 18.33° C | 80% | 1012.6 hPa | 0 mm | 4.92 m/s, 175° | - | - |
| 1777476002 | 18.33° C | 80% | 1012.4 hPa | 0 mm | 4.47 m/s, 181° | - | - |
| 1777475703 | 18.33° C | 80% | 1012.2 hPa | 0 mm | 4.02 m/s, 180° | - | - |
| 1777475403 | 18.33° C | 81% | 1012.3 hPa | 0 mm | 4.47 m/s, 180° | - | - |
| 1777475102 | 18.33° C | 81% | 1012.3 hPa | 0 mm | 5.81 m/s, 170° | - | - |
| 1777474802 | 18.33° C | 81% | 1012.2 hPa | 0 mm | 4.02 m/s, 180° | - | - |
| 1777474202 | 17.78° C | 81% | 1012.2 hPa | 0 mm | 4.47 m/s, 180° | - | - |
* Rain latest hour (hover to see other rain measurements)
** Current wind speed in m/s (hover to see current wind gust speed)